Adams Gardens, Texas
Current Conditions -  °F | °C
As of 12:52 PM on Thursday 30 Oct 2014 (Local Time) from KHRL Reporting Station
Clear Clear  
Wind Chill: 86°   Ceiling: Unl
Heat Index: 89°   Visibility: 10mi
Dew Point: 67°   Wind: 0mph
Humidity: 53%   Direction: NA
Pressure: 30.06"   Gusts: NA
Location:  26.2089°N, 97.6849°W
Report Text: KHRL 301752Z 00000KT 10SM CLR 30/19 A3006 RMK AO2 SLP179 T03000194 10300 20178 58011
Loading
Personal Weather Stations






























Interactive Weather Map
Tropical Storm Tracking
New forecast layout! Learn more

10-Day Weather Forecast

Advertisements
Track Severe Weather on mobile